sensor_id;sensor_type;location;lat;lon;timestamp;P1;durP1;ratioP1;P2;durP2;ratioP2
12756;SDS011;31601;48.042;12.240;2022-07-15T00:01:50;4.88;;;2.30;;
12756;SDS011;31601;48.042;12.240;2022-07-15T00:04:17;3.42;;;2.20;;
12756;SDS011;31601;48.042;12.240;2022-07-15T00:06:44;5.47;;;2.20;;
12756;SDS011;31601;48.042;12.240;2022-07-15T00:09:10;3.85;;;2.22;;
12756;SDS011;31601;48.042;12.240;2022-07-15T00:11:37;6.00;;;2.22;;
12756;SDS011;31601;48.042;12.240;2022-07-15T00:14:03;2.70;;;2.38;;
12756;SDS011;31601;48.042;12.240;2022-07-15T00:16:30;3.72;;;2.20;;
12756;SDS011;31601;48.042;12.240;2022-07-15T00:18:56;8.43;;;2.60;;
12756;SDS011;31601;48.042;12.240;2022-07-15T00:21:24;8.40;;;3.00;;
12756;SDS011;31601;48.042;12.240;2022-07-15T00:23:51;4.70;;;3.00;;
12756;SDS011;31601;48.042;12.240;2022-07-15T00:26:17;4.63;;;3.53;;
12756;SDS011;31601;48.042;12.240;2022-07-15T00:28:44;5.32;;;4.15;;
12756;SDS011;31601;48.042;12.240;2022-07-15T00:31:10;5.38;;;3.85;;
12756;SDS011;31601;48.042;12.240;2022-07-15T00:33:37;6.23;;;4.60;;
12756;SDS011;31601;48.042;12.240;2022-07-15T00:36:03;5.53;;;4.82;;
12756;SDS011;31601;48.042;12.240;2022-07-15T00:38:31;8.57;;;4.90;;
12756;SDS011;31601;48.042;12.240;2022-07-15T00:40:58;8.00;;;5.13;;
12756;SDS011;31601;48.042;12.240;2022-07-15T00:43:24;7.47;;;5.10;;
12756;SDS011;31601;48.042;12.240;2022-07-15T00:45:51;8.37;;;5.23;;
12756;SDS011;31601;48.042;12.240;2022-07-15T00:48:17;7.40;;;5.50;;
12756;SDS011;31601;48.042;12.240;2022-07-15T00:50:44;9.27;;;5.13;;
12756;SDS011;31601;48.042;12.240;2022-07-15T00:53:12;5.47;;;4.93;;
12756;SDS011;31601;48.042;12.240;2022-07-15T00:55:44;8.23;;;5.07;;
12756;SDS011;31601;48.042;12.240;2022-07-15T00:58:13;6.45;;;5.80;;
12756;SDS011;31601;48.042;12.240;2022-07-15T01:00:42;8.40;;;5.72;;
12756;SDS011;31601;48.042;12.240;2022-07-15T01:03:09;6.72;;;5.70;;
12756;SDS011;31601;48.042;12.240;2022-07-15T01:05:36;8.52;;;6.13;;
12756;SDS011;31601;48.042;12.240;2022-07-15T01:08:04;6.85;;;5.80;;
12756;SDS011;31601;48.042;12.240;2022-07-15T01:10:30;7.25;;;5.20;;
12756;SDS011;31601;48.042;12.240;2022-07-15T01:13:02;11.80;;;5.85;;
12756;SDS011;31601;48.042;12.240;2022-07-15T01:15:29;6.15;;;5.28;;
12756;SDS011;31601;48.042;12.240;2022-07-15T01:17:58;8.53;;;5.17;;
12756;SDS011;31601;48.042;12.240;2022-07-15T01:20:25;7.45;;;5.30;;
12756;SDS011;31601;48.042;12.240;2022-07-15T01:22:53;8.50;;;5.15;;
12756;SDS011;31601;48.042;12.240;2022-07-15T01:25:20;9.00;;;5.72;;
12756;SDS011;31601;48.042;12.240;2022-07-15T01:27:47;8.13;;;4.85;;
12756;SDS011;31601;48.042;12.240;2022-07-15T01:30:13;6.97;;;5.30;;
12756;SDS011;31601;48.042;12.240;2022-07-15T01:32:40;7.25;;;5.70;;
12756;SDS011;31601;48.042;12.240;2022-07-15T01:35:07;9.75;;;5.55;;
12756;SDS011;31601;48.042;12.240;2022-07-15T01:37:34;9.13;;;5.80;;
12756;SDS011;31601;48.042;12.240;2022-07-15T01:40:02;6.93;;;6.05;;
12756;SDS011;31601;48.042;12.240;2022-07-15T01:42:29;9.93;;;5.82;;
12756;SDS011;31601;48.042;12.240;2022-07-15T01:44:55;6.20;;;5.43;;
12756;SDS011;31601;48.042;12.240;2022-07-15T01:47:22;28.13;;;5.60;;
12756;SDS011;31601;48.042;12.240;2022-07-15T01:49:48;6.15;;;5.00;;
12756;SDS011;31601;48.042;12.240;2022-07-15T01:52:14;6.70;;;4.60;;
12756;SDS011;31601;48.042;12.240;2022-07-15T01:54:41;6.32;;;4.68;;
12756;SDS011;31601;48.042;12.240;2022-07-15T01:57:09;5.68;;;5.10;;
12756;SDS011;31601;48.042;12.240;2022-07-15T01:59:35;6.57;;;5.10;;
12756;SDS011;31601;48.042;12.240;2022-07-15T02:02:02;14.20;;;5.57;;
12756;SDS011;31601;48.042;12.240;2022-07-15T02:04:28;7.25;;;5.50;;
12756;SDS011;31601;48.042;12.240;2022-07-15T02:06:56;9.25;;;5.72;;
12756;SDS011;31601;48.042;12.240;2022-07-15T02:09:22;7.22;;;5.35;;
12756;SDS011;31601;48.042;12.240;2022-07-15T02:11:49;6.78;;;4.97;;
12756;SDS011;31601;48.042;12.240;2022-07-15T02:14:17;6.85;;;4.50;;
12756;SDS011;31601;48.042;12.240;2022-07-15T02:16:44;6.13;;;5.03;;
12756;SDS011;31601;48.042;12.240;2022-07-15T02:19:10;7.95;;;4.65;;
12756;SDS011;31601;48.042;12.240;2022-07-15T02:21:37;7.07;;;5.90;;
12756;SDS011;31601;48.042;12.240;2022-07-15T02:24:04;7.53;;;5.68;;
12756;SDS011;31601;48.042;12.240;2022-07-15T02:26:31;5.72;;;4.85;;
12756;SDS011;31601;48.042;12.240;2022-07-15T02:28:57;6.70;;;5.50;;
12756;SDS011;31601;48.042;12.240;2022-07-15T02:31:25;6.85;;;6.10;;
12756;SDS011;31601;48.042;12.240;2022-07-15T02:33:52;7.93;;;6.00;;
12756;SDS011;31601;48.042;12.240;2022-07-15T02:36:19;8.60;;;6.15;;
12756;SDS011;31601;48.042;12.240;2022-07-15T02:38:45;7.03;;;6.10;;
12756;SDS011;31601;48.042;12.240;2022-07-15T02:41:12;7.27;;;5.93;;
12756;SDS011;31601;48.042;12.240;2022-07-15T02:43:39;7.67;;;6.10;;
12756;SDS011;31601;48.042;12.240;2022-07-15T02:46:06;7.60;;;6.30;;
12756;SDS011;31601;48.042;12.240;2022-07-15T02:48:35;7.80;;;6.20;;
12756;SDS011;31601;48.042;12.240;2022-07-15T02:51:01;9.10;;;6.93;;
12756;SDS011;31601;48.042;12.240;2022-07-15T02:53:28;9.80;;;7.03;;
12756;SDS011;31601;48.042;12.240;2022-07-15T02:55:54;11.80;;;7.73;;
12756;SDS011;31601;48.042;12.240;2022-07-15T02:58:23;11.13;;;7.53;;
12756;SDS011;31601;48.042;12.240;2022-07-15T03:00:49;11.97;;;8.37;;
12756;SDS011;31601;48.042;12.240;2022-07-15T03:03:16;10.40;;;8.40;;
12756;SDS011;31601;48.042;12.240;2022-07-15T03:05:44;10.23;;;6.88;;
12756;SDS011;31601;48.042;12.240;2022-07-15T03:08:10;9.80;;;7.30;;
12756;SDS011;31601;48.042;12.240;2022-07-15T03:10:37;8.68;;;7.47;;
12756;SDS011;31601;48.042;12.240;2022-07-15T03:13:03;11.13;;;7.50;;
12756;SDS011;31601;48.042;12.240;2022-07-15T03:15:30;9.77;;;6.87;;
12756;SDS011;31601;48.042;12.240;2022-07-15T03:17:56;11.63;;;7.18;;
12756;SDS011;31601;48.042;12.240;2022-07-15T03:20:23;13.30;;;7.07;;
12756;SDS011;31601;48.042;12.240;2022-07-15T03:22:51;10.13;;;6.90;;
12756;SDS011;31601;48.042;12.240;2022-07-15T03:25:17;11.32;;;7.47;;
12756;SDS011;31601;48.042;12.240;2022-07-15T03:27:44;7.70;;;6.80;;
12756;SDS011;31601;48.042;12.240;2022-07-15T03:30:10;10.95;;;7.00;;
12756;SDS011;31601;48.042;12.240;2022-07-15T03:32:37;8.87;;;6.93;;
12756;SDS011;31601;48.042;12.240;2022-07-15T03:35:03;9.13;;;7.67;;
12756;SDS011;31601;48.042;12.240;2022-07-15T03:37:30;10.43;;;8.80;;
12756;SDS011;31601;48.042;12.240;2022-07-15T03:39:59;9.57;;;8.53;;
12756;SDS011;31601;48.042;12.240;2022-07-15T03:42:25;11.30;;;9.00;;
12756;SDS011;31601;48.042;12.240;2022-07-15T03:44:51;9.47;;;8.37;;
12756;SDS011;31601;48.042;12.240;2022-07-15T03:47:18;9.97;;;7.67;;
12756;SDS011;31601;48.042;12.240;2022-07-15T03:49:44;12.60;;;7.83;;
12756;SDS011;31601;48.042;12.240;2022-07-15T03:52:11;12.47;;;8.50;;
12756;SDS011;31601;48.042;12.240;2022-07-15T03:54:37;11.07;;;8.37;;
12756;SDS011;31601;48.042;12.240;2022-07-15T03:57:05;9.50;;;8.10;;
12756;SDS011;31601;48.042;12.240;2022-07-15T03:59:32;9.13;;;7.87;;
12756;SDS011;31601;48.042;12.240;2022-07-15T04:01:58;10.73;;;8.27;;
12756;SDS011;31601;48.042;12.240;2022-07-15T04:04:25;8.87;;;7.97;;
12756;SDS011;31601;48.042;12.240;2022-07-15T04:06:51;11.97;;;8.10;;
12756;SDS011;31601;48.042;12.240;2022-07-15T04:09:18;9.33;;;7.90;;
12756;SDS011;31601;48.042;12.240;2022-07-15T04:11:44;8.80;;;7.87;;
12756;SDS011;31601;48.042;12.240;2022-07-15T04:14:12;13.13;;;8.07;;
12756;SDS011;31601;48.042;12.240;2022-07-15T04:16:40;12.77;;;7.00;;
12756;SDS011;31601;48.042;12.240;2022-07-15T04:19:07;8.07;;;6.90;;
12756;SDS011;31601;48.042;12.240;2022-07-15T04:21:33;8.37;;;6.37;;
12756;SDS011;31601;48.042;12.240;2022-07-15T04:24:00;8.77;;;7.23;;
12756;SDS011;31601;48.042;12.240;2022-07-15T04:26:26;13.97;;;6.67;;
12756;SDS011;31601;48.042;12.240;2022-07-15T04:28:53;8.33;;;6.77;;
12756;SDS011;31601;48.042;12.240;2022-07-15T04:31:21;7.73;;;6.93;;
12756;SDS011;31601;48.042;12.240;2022-07-15T04:33:48;10.80;;;6.67;;
12756;SDS011;31601;48.042;12.240;2022-07-15T04:36:14;9.47;;;7.07;;
12756;SDS011;31601;48.042;12.240;2022-07-15T04:38:40;7.25;;;6.38;;
12756;SDS011;31601;48.042;12.240;2022-07-15T04:41:07;11.18;;;6.50;;
12756;SDS011;31601;48.042;12.240;2022-07-15T04:43:33;9.60;;;6.90;;
12756;SDS011;31601;48.042;12.240;2022-07-15T04:46:00;9.05;;;6.53;;
12756;SDS011;31601;48.042;12.240;2022-07-15T04:48:28;10.43;;;6.95;;
12756;SDS011;31601;48.042;12.240;2022-07-15T04:51:12;7.47;;;6.72;;
12756;SDS011;31601;48.042;12.240;2022-07-15T04:53:38;7.43;;;6.07;;
12756;SDS011;31601;48.042;12.240;2022-07-15T04:56:05;7.82;;;6.32;;
12756;SDS011;31601;48.042;12.240;2022-07-15T04:58:32;7.47;;;6.50;;
12756;SDS011;31601;48.042;12.240;2022-07-15T05:00:58;7.40;;;6.68;;
12756;SDS011;31601;48.042;12.240;2022-07-15T05:03:25;7.95;;;6.53;;
12756;SDS011;31601;48.042;12.240;2022-07-15T05:05:52;8.63;;;6.78;;
12756;SDS011;31601;48.042;12.240;2022-07-15T05:08:21;7.07;;;6.22;;
12756;SDS011;31601;48.042;12.240;2022-07-15T05:10:48;8.07;;;6.47;;
12756;SDS011;31601;48.042;12.240;2022-07-15T05:13:14;8.02;;;6.47;;
12756;SDS011;31601;48.042;12.240;2022-07-15T05:15:41;7.03;;;6.10;;
12756;SDS011;31601;48.042;12.240;2022-07-15T05:18:07;7.22;;;6.13;;
12756;SDS011;31601;48.042;12.240;2022-07-15T05:20:34;8.02;;;6.60;;
12756;SDS011;31601;48.042;12.240;2022-07-15T05:23:01;6.97;;;6.25;;
12756;SDS011;31601;48.042;12.240;2022-07-15T05:25:28;7.57;;;6.82;;
12756;SDS011;31601;48.042;12.240;2022-07-15T05:27:55;7.35;;;6.65;;
12756;SDS011;31601;48.042;12.240;2022-07-15T05:30:22;7.50;;;6.80;;
12756;SDS011;31601;48.042;12.240;2022-07-15T05:32:48;8.13;;;6.80;;
12756;SDS011;31601;48.042;12.240;2022-07-15T05:35:15;8.45;;;7.10;;
12756;SDS011;31601;48.042;12.240;2022-07-15T05:37:42;7.72;;;6.80;;
12756;SDS011;31601;48.042;12.240;2022-07-15T05:40:10;7.35;;;6.45;;
12756;SDS011;31601;48.042;12.240;2022-07-15T05:42:38;7.95;;;6.40;;
12756;SDS011;31601;48.042;12.240;2022-07-15T05:45:05;8.10;;;6.47;;
12756;SDS011;31601;48.042;12.240;2022-07-15T05:47:33;7.93;;;6.30;;
12756;SDS011;31601;48.042;12.240;2022-07-15T05:49:59;8.48;;;7.07;;
12756;SDS011;31601;48.042;12.240;2022-07-15T05:52:26;8.98;;;6.10;;
12756;SDS011;31601;48.042;12.240;2022-07-15T05:54:52;7.78;;;6.68;;
12756;SDS011;31601;48.042;12.240;2022-07-15T05:57:20;8.15;;;6.50;;
12756;SDS011;31601;48.042;12.240;2022-07-15T05:59:46;9.85;;;6.88;;
12756;SDS011;31601;48.042;12.240;2022-07-15T06:02:13;8.80;;;6.50;;
12756;SDS011;31601;48.042;12.240;2022-07-15T06:04:39;10.05;;;6.45;;
12756;SDS011;31601;48.042;12.240;2022-07-15T06:07:06;9.10;;;6.20;;
12756;SDS011;31601;48.042;12.240;2022-07-15T06:09:32;10.70;;;7.13;;
12756;SDS011;31601;48.042;12.240;2022-07-15T06:11:59;9.52;;;6.07;;
12756;SDS011;31601;48.042;12.240;2022-07-15T06:14:26;8.55;;;5.97;;
12756;SDS011;31601;48.042;12.240;2022-07-15T06:16:53;9.23;;;6.60;;
12756;SDS011;31601;48.042;12.240;2022-07-15T06:19:19;6.55;;;5.85;;
12756;SDS011;31601;48.042;12.240;2022-07-15T06:21:46;11.82;;;6.22;;
12756;SDS011;31601;48.042;12.240;2022-07-15T06:24:12;7.72;;;5.97;;
12756;SDS011;31601;48.042;12.240;2022-07-15T06:26:39;14.82;;;6.25;;
12756;SDS011;31601;48.042;12.240;2022-07-15T06:29:05;9.35;;;6.32;;
12756;SDS011;31601;48.042;12.240;2022-07-15T06:31:33;6.97;;;5.20;;
12756;SDS011;31601;48.042;12.240;2022-07-15T06:33:59;8.02;;;5.75;;
12756;SDS011;31601;48.042;12.240;2022-07-15T06:36:26;7.25;;;5.68;;
12756;SDS011;31601;48.042;12.240;2022-07-15T06:38:52;6.68;;;5.90;;
12756;SDS011;31601;48.042;12.240;2022-07-15T06:41:19;8.35;;;5.78;;
12756;SDS011;31601;48.042;12.240;2022-07-15T06:43:45;6.97;;;6.03;;
12756;SDS011;31601;48.042;12.240;2022-07-15T06:46:12;7.47;;;6.28;;
12756;SDS011;31601;48.042;12.240;2022-07-15T06:48:40;9.02;;;6.13;;
12756;SDS011;31601;48.042;12.240;2022-07-15T06:51:07;8.00;;;5.50;;
12756;SDS011;31601;48.042;12.240;2022-07-15T06:53:34;8.68;;;5.78;;
12756;SDS011;31601;48.042;12.240;2022-07-15T06:56:01;7.45;;;5.80;;
12756;SDS011;31601;48.042;12.240;2022-07-15T06:58:27;9.70;;;6.07;;
12756;SDS011;31601;48.042;12.240;2022-07-15T07:00:54;15.23;;;8.30;;
12756;SDS011;31601;48.042;12.240;2022-07-15T07:03:20;6.60;;;5.55;;
12756;SDS011;31601;48.042;12.240;2022-07-15T07:05:48;8.73;;;5.97;;
12756;SDS011;31601;48.042;12.240;2022-07-15T07:08:14;8.35;;;5.20;;
12756;SDS011;31601;48.042;12.240;2022-07-15T07:10:41;7.50;;;4.60;;
12756;SDS011;31601;48.042;12.240;2022-07-15T07:13:07;5.35;;;4.85;;
12756;SDS011;31601;48.042;12.240;2022-07-15T07:15:34;6.95;;;4.90;;
12756;SDS011;31601;48.042;12.240;2022-07-15T07:18:00;7.72;;;4.90;;
12756;SDS011;31601;48.042;12.240;2022-07-15T07:20:27;7.28;;;5.03;;
12756;SDS011;31601;48.042;12.240;2022-07-15T07:22:55;8.75;;;5.07;;
12756;SDS011;31601;48.042;12.240;2022-07-15T07:25:22;7.35;;;4.32;;
12756;SDS011;31601;48.042;12.240;2022-07-15T07:27:48;6.22;;;4.80;;
12756;SDS011;31601;48.042;12.240;2022-07-15T07:30:15;8.18;;;4.53;;
12756;SDS011;31601;48.042;12.240;2022-07-15T07:32:42;9.15;;;5.38;;
12756;SDS011;31601;48.042;12.240;2022-07-15T07:35:09;8.50;;;4.95;;
12756;SDS011;31601;48.042;12.240;2022-07-15T07:37:36;7.85;;;5.22;;
12756;SDS011;31601;48.042;12.240;2022-07-15T07:40:05;10.70;;;4.88;;
12756;SDS011;31601;48.042;12.240;2022-07-15T07:42:33;6.78;;;4.90;;
12756;SDS011;31601;48.042;12.240;2022-07-15T07:45:00;7.57;;;4.50;;
12756;SDS011;31601;48.042;12.240;2022-07-15T07:47:26;11.48;;;4.80;;
12756;SDS011;31601;48.042;12.240;2022-07-15T07:49:53;9.55;;;4.10;;
12756;SDS011;31601;48.042;12.240;2022-07-15T07:52:19;6.82;;;3.90;;
12756;SDS011;31601;48.042;12.240;2022-07-15T07:54:45;8.02;;;3.83;;
12756;SDS011;31601;48.042;12.240;2022-07-15T07:57:13;5.22;;;3.90;;
12756;SDS011;31601;48.042;12.240;2022-07-15T07:59:40;5.90;;;3.97;;
12756;SDS011;31601;48.042;12.240;2022-07-15T08:02:06;9.18;;;4.55;;
12756;SDS011;31601;48.042;12.240;2022-07-15T08:04:33;6.07;;;4.00;;
12756;SDS011;31601;48.042;12.240;2022-07-15T08:06:59;8.32;;;4.55;;
12756;SDS011;31601;48.042;12.240;2022-07-15T08:09:26;5.70;;;4.30;;
12756;SDS011;31601;48.042;12.240;2022-07-15T08:11:52;6.13;;;4.28;;
12756;SDS011;31601;48.042;12.240;2022-07-15T08:14:20;5.35;;;3.63;;
12756;SDS011;31601;48.042;12.240;2022-07-15T08:16:46;5.90;;;4.18;;
12756;SDS011;31601;48.042;12.240;2022-07-15T08:19:13;7.68;;;4.28;;
12756;SDS011;31601;48.042;12.240;2022-07-15T08:21:41;6.15;;;4.32;;
12756;SDS011;31601;48.042;12.240;2022-07-15T08:24:08;6.93;;;4.82;;
12756;SDS011;31601;48.042;12.240;2022-07-15T08:26:35;4.60;;;4.03;;
12756;SDS011;31601;48.042;12.240;2022-07-15T08:29:02;6.85;;;4.32;;
12756;SDS011;31601;48.042;12.240;2022-07-15T08:31:30;6.63;;;4.28;;
12756;SDS011;31601;48.042;12.240;2022-07-15T08:33:57;7.13;;;3.92;;
12756;SDS011;31601;48.042;12.240;2022-07-15T08:36:23;7.57;;;4.50;;
12756;SDS011;31601;48.042;12.240;2022-07-15T08:38:50;10.23;;;3.88;;
12756;SDS011;31601;48.042;12.240;2022-07-15T08:41:16;5.78;;;4.15;;
12756;SDS011;31601;48.042;12.240;2022-07-15T08:43:43;9.25;;;4.05;;
12756;SDS011;31601;48.042;12.240;2022-07-15T08:46:10;9.35;;;4.10;;
12756;SDS011;31601;48.042;12.240;2022-07-15T08:48:40;7.38;;;4.10;;
12756;SDS011;31601;48.042;12.240;2022-07-15T08:51:14;6.22;;;3.90;;
12756;SDS011;31601;48.042;12.240;2022-07-15T08:53:41;7.53;;;4.07;;
12756;SDS011;31601;48.042;12.240;2022-07-15T08:56:08;6.90;;;3.60;;
12756;SDS011;31601;48.042;12.240;2022-07-15T08:58:35;6.20;;;3.85;;
12756;SDS011;31601;48.042;12.240;2022-07-15T09:01:02;8.98;;;4.28;;
12756;SDS011;31601;48.042;12.240;2022-07-15T09:03:28;6.05;;;3.40;;
12756;SDS011;31601;48.042;12.240;2022-07-15T09:05:56;8.38;;;3.70;;
12756;SDS011;31601;48.042;12.240;2022-07-15T09:08:22;7.30;;;3.90;;
12756;SDS011;31601;48.042;12.240;2022-07-15T09:10:50;11.15;;;4.03;;
12756;SDS011;31601;48.042;12.240;2022-07-15T09:13:21;5.30;;;3.55;;
12756;SDS011;31601;48.042;12.240;2022-07-15T09:15:52;7.70;;;3.97;;
12756;SDS011;31601;48.042;12.240;2022-07-15T09:18:20;6.35;;;3.97;;
12756;SDS011;31601;48.042;12.240;2022-07-15T09:20:48;7.47;;;4.25;;
12756;SDS011;31601;48.042;12.240;2022-07-15T09:23:18;7.22;;;4.38;;
12756;SDS011;31601;48.042;12.240;2022-07-15T09:25:49;6.40;;;3.92;;
12756;SDS011;31601;48.042;12.240;2022-07-15T09:28:16;5.28;;;4.10;;
12756;SDS011;31601;48.042;12.240;2022-07-15T09:30:43;6.60;;;4.10;;
12756;SDS011;31601;48.042;12.240;2022-07-15T09:33:29;5.38;;;3.88;;
12756;SDS011;31601;48.042;12.240;2022-07-15T09:36:04;7.78;;;4.03;;
12756;SDS011;31601;48.042;12.240;2022-07-15T09:38:34;8.30;;;4.50;;
12756;SDS011;31601;48.042;12.240;2022-07-15T09:41:13;7.18;;;3.95;;
12756;SDS011;31601;48.042;12.240;2022-07-15T09:43:48;5.55;;;3.35;;
12756;SDS011;31601;48.042;12.240;2022-07-15T09:46:17;5.47;;;3.90;;
12756;SDS011;31601;48.042;12.240;2022-07-15T09:48:45;6.70;;;3.92;;
12756;SDS011;31601;48.042;12.240;2022-07-15T09:51:14;7.38;;;3.60;;
12756;SDS011;31601;48.042;12.240;2022-07-15T09:53:43;6.03;;;3.80;;
12756;SDS011;31601;48.042;12.240;2022-07-15T09:56:12;5.03;;;3.50;;
12756;SDS011;31601;48.042;12.240;2022-07-15T09:58:41;5.72;;;3.20;;
12756;SDS011;31601;48.042;12.240;2022-07-15T10:01:09;9.30;;;4.20;;
12756;SDS011;31601;48.042;12.240;2022-07-15T10:03:37;7.20;;;4.05;;
12756;SDS011;31601;48.042;12.240;2022-07-15T10:06:04;6.50;;;3.70;;
12756;SDS011;31601;48.042;12.240;2022-07-15T10:08:32;6.55;;;3.78;;
12756;SDS011;31601;48.042;12.240;2022-07-15T10:11:01;5.75;;;3.72;;
12756;SDS011;31601;48.042;12.240;2022-07-15T10:13:42;11.25;;;3.90;;
12756;SDS011;31601;48.042;12.240;2022-07-15T10:16:23;8.15;;;3.00;;
12756;SDS011;31601;48.042;12.240;2022-07-15T10:19:04;5.45;;;3.17;;
12756;SDS011;31601;48.042;12.240;2022-07-15T10:21:37;5.85;;;3.67;;
12756;SDS011;31601;48.042;12.240;2022-07-15T10:24:10;6.25;;;3.60;;
12756;SDS011;31601;48.042;12.240;2022-07-15T10:26:54;6.57;;;3.67;;
12756;SDS011;31601;48.042;12.240;2022-07-15T10:29:31;7.53;;;3.47;;
12756;SDS011;31601;48.042;12.240;2022-07-15T10:31:58;5.72;;;3.15;;
12756;SDS011;31601;48.042;12.240;2022-07-15T10:34:30;7.90;;;3.83;;
12756;SDS011;31601;48.042;12.240;2022-07-15T10:36:59;6.43;;;3.72;;
12756;SDS011;31601;48.042;12.240;2022-07-15T10:45:26;5.55;;;3.63;;
12756;SDS011;31601;48.042;12.240;2022-07-15T10:50:53;5.38;;;3.33;;
12756;SDS011;31601;48.042;12.240;2022-07-15T10:53:20;10.05;;;3.60;;
12756;SDS011;31601;48.042;12.240;2022-07-15T10:55:49;5.55;;;2.97;;
12756;SDS011;31601;48.042;12.240;2022-07-15T10:58:17;5.50;;;3.08;;
12756;SDS011;31601;48.042;12.240;2022-07-15T11:00:45;4.97;;;3.42;;
12756;SDS011;31601;48.042;12.240;2022-07-15T11:03:12;5.25;;;2.95;;
12756;SDS011;31601;48.042;12.240;2022-07-15T11:08:47;6.32;;;2.90;;
12756;SDS011;31601;48.042;12.240;2022-07-15T11:17:11;5.45;;;3.00;;
12756;SDS011;31601;48.042;12.240;2022-07-15T11:19:41;4.82;;;2.80;;
12756;SDS011;31601;48.042;12.240;2022-07-15T11:22:11;7.65;;;3.28;;
12756;SDS011;31601;48.042;12.240;2022-07-15T11:24:37;5.88;;;3.05;;
12756;SDS011;31601;48.042;12.240;2022-07-15T11:27:04;7.70;;;3.28;;
12756;SDS011;31601;48.042;12.240;2022-07-15T11:29:40;5.90;;;3.13;;
12756;SDS011;31601;48.042;12.240;2022-07-15T11:32:12;4.53;;;2.90;;
12756;SDS011;31601;48.042;12.240;2022-07-15T11:34:41;4.32;;;3.05;;
12756;SDS011;31601;48.042;12.240;2022-07-15T11:37:08;7.53;;;3.20;;
12756;SDS011;31601;48.042;12.240;2022-07-15T11:39:35;6.05;;;3.03;;
12756;SDS011;31601;48.042;12.240;2022-07-15T11:42:02;5.13;;;2.90;;
12756;SDS011;31601;48.042;12.240;2022-07-15T11:44:48;4.38;;;2.60;;
12756;SDS011;31601;48.042;12.240;2022-07-15T11:47:15;4.78;;;2.90;;
12756;SDS011;31601;48.042;12.240;2022-07-15T11:49:42;4.68;;;2.75;;
12756;SDS011;31601;48.042;12.240;2022-07-15T11:52:09;6.95;;;2.70;;
12756;SDS011;31601;48.042;12.240;2022-07-15T11:54:39;5.35;;;2.75;;
12756;SDS011;31601;48.042;12.240;2022-07-15T11:57:07;5.90;;;2.53;;
12756;SDS011;31601;48.042;12.240;2022-07-15T11:59:35;5.40;;;2.75;;
12756;SDS011;31601;48.042;12.240;2022-07-15T12:02:03;5.53;;;2.80;;
12756;SDS011;31601;48.042;12.240;2022-07-15T12:04:31;4.40;;;2.75;;
12756;SDS011;31601;48.042;12.240;2022-07-15T12:06:58;5.82;;;2.55;;
12756;SDS011;31601;48.042;12.240;2022-07-15T12:09:25;3.28;;;2.50;;
12756;SDS011;31601;48.042;12.240;2022-07-15T12:11:52;4.57;;;2.78;;
12756;SDS011;31601;48.042;12.240;2022-07-15T12:14:18;10.30;;;2.55;;
12756;SDS011;31601;48.042;12.240;2022-07-15T12:16:47;3.85;;;2.67;;
12756;SDS011;31601;48.042;12.240;2022-07-15T12:19:16;3.72;;;2.40;;
12756;SDS011;31601;48.042;12.240;2022-07-15T12:21:44;3.58;;;2.72;;
12756;SDS011;31601;48.042;12.240;2022-07-15T12:24:13;5.00;;;2.42;;
12756;SDS011;31601;48.042;12.240;2022-07-15T12:26:42;5.50;;;2.55;;
12756;SDS011;31601;48.042;12.240;2022-07-15T12:29:22;4.95;;;2.13;;
12756;SDS011;31601;48.042;12.240;2022-07-15T12:31:51;5.70;;;2.40;;
12756;SDS011;31601;48.042;12.240;2022-07-15T12:34:19;4.85;;;2.60;;
12756;SDS011;31601;48.042;12.240;2022-07-15T12:36:54;3.75;;;2.30;;
12756;SDS011;31601;48.042;12.240;2022-07-15T12:39:21;5.32;;;2.22;;
12756;SDS011;31601;48.042;12.240;2022-07-15T12:41:58;4.10;;;2.30;;
12756;SDS011;31601;48.042;12.240;2022-07-15T12:44:26;5.95;;;2.50;;
12756;SDS011;31601;48.042;12.240;2022-07-15T12:46:56;5.68;;;2.10;;
12756;SDS011;31601;48.042;12.240;2022-07-15T12:52:21;6.95;;;2.20;;
12756;SDS011;31601;48.042;12.240;2022-07-15T12:54:50;5.15;;;2.33;;
12756;SDS011;31601;48.042;12.240;2022-07-15T12:57:19;4.22;;;2.22;;
12756;SDS011;31601;48.042;12.240;2022-07-15T12:59:50;5.60;;;2.30;;
12756;SDS011;31601;48.042;12.240;2022-07-15T13:02:18;3.03;;;2.10;;
12756;SDS011;31601;48.042;12.240;2022-07-15T13:04:44;5.20;;;2.20;;
12756;SDS011;31601;48.042;12.240;2022-07-15T13:07:12;5.50;;;3.13;;
12756;SDS011;31601;48.042;12.240;2022-07-15T13:09:38;3.13;;;2.10;;
12756;SDS011;31601;48.042;12.240;2022-07-15T13:12:05;5.72;;;2.13;;
12756;SDS011;31601;48.042;12.240;2022-07-15T13:14:33;8.65;;;2.70;;
12756;SDS011;31601;48.042;12.240;2022-07-15T13:17:00;4.60;;;2.28;;
12756;SDS011;31601;48.042;12.240;2022-07-15T13:19:26;4.65;;;2.15;;
12756;SDS011;31601;48.042;12.240;2022-07-15T13:21:53;4.05;;;2.05;;
12756;SDS011;31601;48.042;12.240;2022-07-15T13:24:21;4.63;;;2.42;;
12756;SDS011;31601;48.042;12.240;2022-07-15T13:26:47;4.30;;;2.13;;
12756;SDS011;31601;48.042;12.240;2022-07-15T13:29:13;4.50;;;2.17;;
12756;SDS011;31601;48.042;12.240;2022-07-15T13:31:40;6.28;;;2.33;;
12756;SDS011;31601;48.042;12.240;2022-07-15T13:34:06;6.28;;;2.03;;
12756;SDS011;31601;48.042;12.240;2022-07-15T13:36:33;4.68;;;2.03;;
12756;SDS011;31601;48.042;12.240;2022-07-15T13:39:01;4.95;;;3.20;;
12756;SDS011;31601;48.042;12.240;2022-07-15T13:41:29;6.10;;;2.47;;
12756;SDS011;31601;48.042;12.240;2022-07-15T13:43:56;8.15;;;3.15;;
12756;SDS011;31601;48.042;12.240;2022-07-15T13:46:22;5.78;;;2.88;;
12756;SDS011;31601;48.042;12.240;2022-07-15T13:48:49;4.72;;;2.20;;
12756;SDS011;31601;48.042;12.240;2022-07-15T13:51:15;4.88;;;2.10;;
12756;SDS011;31601;48.042;12.240;2022-07-15T13:53:51;5.97;;;2.28;;
12756;SDS011;31601;48.042;12.240;2022-07-15T13:56:18;5.05;;;2.15;;
12756;SDS011;31601;48.042;12.240;2022-07-15T13:58:47;3.85;;;2.08;;
12756;SDS011;31601;48.042;12.240;2022-07-15T14:01:14;7.82;;;2.35;;
12756;SDS011;31601;48.042;12.240;2022-07-15T14:03:41;6.25;;;2.45;;
12756;SDS011;31601;48.042;12.240;2022-07-15T14:06:08;3.13;;;1.88;;
12756;SDS011;31601;48.042;12.240;2022-07-15T14:08:35;6.72;;;2.20;;
12756;SDS011;31601;48.042;12.240;2022-07-15T14:11:01;7.68;;;2.47;;
12756;SDS011;31601;48.042;12.240;2022-07-15T14:13:28;3.80;;;2.10;;
12756;SDS011;31601;48.042;12.240;2022-07-15T14:15:55;4.15;;;1.80;;
12756;SDS011;31601;48.042;12.240;2022-07-15T14:18:22;6.00;;;2.20;;
12756;SDS011;31601;48.042;12.240;2022-07-15T14:21:07;5.82;;;2.15;;
12756;SDS011;31601;48.042;12.240;2022-07-15T14:23:34;4.82;;;2.20;;
12756;SDS011;31601;48.042;12.240;2022-07-15T14:26:01;5.68;;;2.20;;
12756;SDS011;31601;48.042;12.240;2022-07-15T14:28:27;3.40;;;1.80;;
12756;SDS011;31601;48.042;12.240;2022-07-15T14:30:55;9.25;;;1.90;;
12756;SDS011;31601;48.042;12.240;2022-07-15T14:33:21;4.38;;;1.90;;
12756;SDS011;31601;48.042;12.240;2022-07-15T14:35:48;8.10;;;2.33;;
12756;SDS011;31601;48.042;12.240;2022-07-15T14:38:14;5.43;;;1.90;;
12756;SDS011;31601;48.042;12.240;2022-07-15T14:40:41;6.43;;;1.85;;
12756;SDS011;31601;48.042;12.240;2022-07-15T14:43:07;5.03;;;1.90;;
12756;SDS011;31601;48.042;12.240;2022-07-15T14:45:34;5.50;;;2.55;;
12756;SDS011;31601;48.042;12.240;2022-07-15T14:48:02;2.75;;;1.80;;
12756;SDS011;31601;48.042;12.240;2022-07-15T14:50:29;6.93;;;1.90;;
12756;SDS011;31601;48.042;12.240;2022-07-15T14:52:57;4.50;;;2.15;;
12756;SDS011;31601;48.042;12.240;2022-07-15T14:55:24;3.70;;;1.70;;
12756;SDS011;31601;48.042;12.240;2022-07-15T14:57:50;4.70;;;1.80;;